Hauptseite
METAR-TAF:

METAR-TAF

Flughäfen :

Flughafen Hannover-Langenhagen

Hannover, Deutschland

Breite: 52-28N, Länge: 009-41E, Höhe: 56 m

Beobachtung

Neuester Wetterbericht von vor 41 Minuten, um 23:50 UTC
Wind 5 kt aus Süd/Südwest, variierte zwischen Süd und Südwest
Temperatur 3°C
Luftfeuchtigkeit 93%
Luftdruck 1001 hPa
Sichtweite 10 km oder mehr
keine Wolken unter 1500 m und keine Kumulonimbus oder Gewitterwolken

METAR: EDDV 122350Z 20005KT 170V230 CAVOK 03/02 Q1001

Zeit: 01:31 (00:31 UTC)

Prognose

Neuester Wetterbericht von vor 1 Stunde und 31 Minuten, um 23:00 UTC
Gültige Prognose vom 13 um 00 UTC bis 13 um 24 UTC
Wind 8 kt aus Süd
Sichtweite 10 km oder mehr
Aufgelockert bewölkt in der Höhe von 3000 ft
Wahrscheinlichkeit 30% :
Zeitweise
vom 13 um 12 UTC bis 13 um 24 UTC
Durchbrochene Bewölkung in der Höhe von 1400 ft

TAF: EDDV 122300Z 1300/1324 18008KT 9999 SCT030 PROB30 TEMPO 1312/1324 BKN014

Wetterbeobachtungen und Prognosen von mehr als 4000 Flughäfen (METAR und TAF Bericht).

Die verfügbaren Stationen werden durch gelbe und rote Markierungen auf der Karte dargestellt.

Führen Sie die Maus auf sie, um den Namen der Station zu sehen.

Darauf klicken, um die Beobachtung von Wetterbeobachtungen und Prognosen zu sehen.

Um die Karte zu ändern : klicken Sie auf den grünen Tasten mit einem schwarzen Kreuz Zum Vergrößern, auf den grünen Button mit einem Gedankenstrich zu verkleinern, oder auf die grünen Pfeile für benachbarte Karten.


METAR-TAF: